createdAt,value
2022-08-26T00:00:48.811Z,19.51
2022-08-26T00:01:48.920Z,19.31
2022-08-26T00:02:48.858Z,19.39
2022-08-26T00:03:48.855Z,19.37
2022-08-26T00:04:48.805Z,19.31
2022-08-26T00:05:48.849Z,19.34
2022-08-26T00:06:48.777Z,19.39
2022-08-26T00:07:48.761Z,19.33
2022-08-26T00:08:48.827Z,19.30
2022-08-26T00:09:48.733Z,19.07
2022-08-26T00:10:48.742Z,18.83
2022-08-26T00:11:48.697Z,18.63
2022-08-26T00:12:48.804Z,18.71
2022-08-26T00:13:49.457Z,18.86
2022-08-26T00:14:48.674Z,18.84
2022-08-26T00:15:48.705Z,18.93
2022-08-26T00:16:49.050Z,18.89
2022-08-26T00:17:49.636Z,18.86
2022-08-26T00:18:48.655Z,18.88
2022-08-26T00:19:48.712Z,18.77
2022-08-26T00:20:48.821Z,18.86
2022-08-26T00:21:49.624Z,18.88
2022-08-26T00:22:48.609Z,18.80
2022-08-26T00:23:48.568Z,18.66
2022-08-26T00:24:48.634Z,18.78
2022-08-26T00:25:48.529Z,18.81
2022-08-26T00:26:48.661Z,18.74
2022-08-26T00:27:48.549Z,18.80
2022-08-26T00:28:48.593Z,18.88
2022-08-26T00:29:48.519Z,18.88
2022-08-26T00:30:48.536Z,18.88
2022-08-26T00:31:48.641Z,18.89
2022-08-26T00:32:48.474Z,18.89
2022-08-26T00:33:48.501Z,18.77
2022-08-26T00:34:48.485Z,18.80
2022-08-26T00:35:48.472Z,18.78
2022-08-26T00:36:51.725Z,18.84
2022-08-26T00:37:48.432Z,18.89
2022-08-26T00:38:48.560Z,18.86
2022-08-26T00:39:48.506Z,18.95
2022-08-26T00:40:48.450Z,18.83
2022-08-26T00:41:48.413Z,18.99
2022-08-26T00:42:48.387Z,19.00
2022-08-26T00:43:48.425Z,19.00
2022-08-26T00:44:48.420Z,19.09
2022-08-26T00:45:49.396Z,19.09
2022-08-26T00:46:48.358Z,19.04
2022-08-26T00:47:48.365Z,19.18
2022-08-26T00:48:49.246Z,19.16
2022-08-26T00:49:48.491Z,19.04
2022-08-26T00:50:48.340Z,18.93
2022-08-26T00:51:48.377Z,18.80
2022-08-26T00:52:49.342Z,18.59
2022-08-26T00:53:48.306Z,18.43
2022-08-26T00:54:48.828Z,18.28
2022-08-26T00:55:48.329Z,18.29
2022-08-26T00:56:48.626Z,18.03
2022-08-26T00:57:48.229Z,17.90
2022-08-26T00:58:48.277Z,17.90
2022-08-26T00:59:48.281Z,17.90
2022-08-26T01:00:48.304Z,17.80
2022-08-26T01:01:48.277Z,17.74
2022-08-26T01:02:48.323Z,17.74
2022-08-26T01:03:48.196Z,17.76
2022-08-26T01:04:48.198Z,17.71
2022-08-26T01:05:49.201Z,17.64
2022-08-26T01:06:48.156Z,17.54
2022-08-26T01:07:48.932Z,17.67
2022-08-26T01:08:48.175Z,17.60
2022-08-26T01:09:48.465Z,17.64
2022-08-26T01:10:48.259Z,17.68
2022-08-26T01:11:48.190Z,17.59
2022-08-26T01:12:48.103Z,17.68
2022-08-26T01:13:48.170Z,17.63
2022-08-26T01:14:48.088Z,17.79
2022-08-26T01:15:48.079Z,17.79
2022-08-26T01:16:48.308Z,17.89
2022-08-26T01:17:48.060Z,17.95
2022-08-26T01:18:48.071Z,18.01
2022-08-26T01:19:48.045Z,18.08
2022-08-26T01:20:50.700Z,17.94
2022-08-26T01:21:48.029Z,17.95
2022-08-26T01:22:48.000Z,18.01
2022-08-26T01:23:48.841Z,17.98
2022-08-26T01:24:48.033Z,17.94
2022-08-26T01:25:47.980Z,17.80
2022-08-26T01:26:47.936Z,17.83
2022-08-26T01:27:49.209Z,17.76
2022-08-26T01:28:50.671Z,17.65
2022-08-26T01:29:48.030Z,17.54
2022-08-26T01:30:48.000Z,17.51
2022-08-26T01:31:48.426Z,17.39
2022-08-26T01:32:47.907Z,17.39
2022-08-26T01:33:47.921Z,17.42
2022-08-26T01:34:47.929Z,17.65
2022-08-26T01:35:47.917Z,17.60
2022-08-26T01:36:51.177Z,17.65
2022-08-26T01:37:47.845Z,17.72
2022-08-26T01:38:47.804Z,17.70
2022-08-26T01:39:48.095Z,17.71
2022-08-26T01:40:48.039Z,17.71
2022-08-26T01:41:47.862Z,17.87
2022-08-26T01:42:48.817Z,17.83
2022-08-26T01:43:47.778Z,17.86
2022-08-26T01:44:47.825Z,17.83
2022-08-26T01:45:47.826Z,17.89
2022-08-26T01:46:47.898Z,17.97
2022-08-26T01:47:47.730Z,18.03
2022-08-26T01:48:47.771Z,18.22
2022-08-26T01:49:47.757Z,18.19
2022-08-26T01:50:47.725Z,18.25
2022-08-26T01:51:47.731Z,18.29
2022-08-26T01:52:50.014Z,18.38
2022-08-26T01:53:48.719Z,18.45
2022-08-26T01:54:50.550Z,18.56
2022-08-26T01:55:47.717Z,18.58
2022-08-26T01:56:47.681Z,18.44
2022-08-26T01:57:47.661Z,18.52
2022-08-26T01:58:47.624Z,18.49
2022-08-26T01:59:47.637Z,18.33
2022-08-26T02:00:47.848Z,18.16
2022-08-26T02:01:47.624Z,18.19
2022-08-26T02:02:47.596Z,18.08
2022-08-26T02:03:47.596Z,17.89
2022-08-26T02:04:48.300Z,17.64
2022-08-26T02:05:48.793Z,17.52
2022-08-26T02:06:47.560Z,17.48
2022-08-26T02:07:48.393Z,17.42
2022-08-26T02:08:47.531Z,17.46
2022-08-26T02:09:47.635Z,17.54
2022-08-26T02:10:47.543Z,17.63
2022-08-26T02:11:55.588Z,17.52
2022-08-26T02:12:47.497Z,17.52
2022-08-26T02:13:47.504Z,17.65
2022-08-26T02:14:47.526Z,17.72
2022-08-26T02:15:47.515Z,17.68
2022-08-26T02:16:47.519Z,17.74
2022-08-26T02:17:47.455Z,17.86
2022-08-26T02:18:47.586Z,17.83
2022-08-26T02:19:47.450Z,17.71
2022-08-26T02:20:47.455Z,17.68
2022-08-26T02:21:51.011Z,17.76
2022-08-26T02:22:47.466Z,17.70
2022-08-26T02:23:47.362Z,17.60
2022-08-26T02:24:47.433Z,17.67
2022-08-26T02:25:48.224Z,17.67
2022-08-26T02:26:47.369Z,17.74
2022-08-26T02:27:47.354Z,17.71
2022-08-26T02:28:47.347Z,17.68
2022-08-26T02:29:48.348Z,17.71
2022-08-26T02:30:47.326Z,17.70
2022-08-26T02:31:47.339Z,17.68
2022-08-26T02:45:09.845Z,16.86
2022-08-26T02:46:09.885Z,16.81
2022-08-26T02:47:09.892Z,16.74
2022-08-26T02:48:10.191Z,16.81
2022-08-26T02:49:09.862Z,16.91
2022-08-26T02:50:09.913Z,16.91
2022-08-26T02:51:09.838Z,16.91
2022-08-26T02:52:09.804Z,16.96
2022-08-26T02:53:09.950Z,16.96
2022-08-26T02:54:09.771Z,16.97
2022-08-26T02:55:09.787Z,16.91
2022-08-26T02:56:09.741Z,17.04
2022-08-26T02:57:09.770Z,17.06
2022-08-26T02:58:09.719Z,17.12
2022-08-26T02:59:09.733Z,17.08
2022-08-26T03:00:09.749Z,17.08
2022-08-26T03:01:09.753Z,17.14
2022-08-26T03:02:10.981Z,17.16
2022-08-26T03:03:10.914Z,17.26
2022-08-26T03:04:11.726Z,17.23
2022-08-26T03:05:10.912Z,17.31
2022-08-26T03:06:10.864Z,17.41
2022-08-26T03:07:10.848Z,17.48
2022-08-26T03:08:10.773Z,17.34
2022-08-26T03:09:11.633Z,17.44
2022-08-26T03:10:10.806Z,17.33
2022-08-26T03:11:10.798Z,17.39
2022-08-26T03:12:10.797Z,17.30
2022-08-26T03:13:10.878Z,17.34
2022-08-26T03:14:10.790Z,17.34
2022-08-26T03:15:16.515Z,17.34
2022-08-26T03:16:11.805Z,17.36
2022-08-26T03:17:10.737Z,17.38
2022-08-26T03:18:10.788Z,17.30
2022-08-26T03:19:10.725Z,17.31
2022-08-26T03:20:10.754Z,17.23
2022-08-26T03:21:10.699Z,17.12
2022-08-26T03:22:10.693Z,17.26
2022-08-26T03:23:10.759Z,17.26
2022-08-26T03:24:10.678Z,17.27
2022-08-26T03:25:10.754Z,17.24
2022-08-26T03:26:10.952Z,17.24
2022-08-26T03:27:10.665Z,17.34
2022-08-26T03:28:10.600Z,17.33
2022-08-26T03:29:10.601Z,17.33
2022-08-26T03:30:11.848Z,17.38
2022-08-26T03:31:10.703Z,17.51
2022-08-26T03:32:13.175Z,17.48
2022-08-26T03:33:10.568Z,17.60
2022-08-26T03:34:11.360Z,17.51
2022-08-26T03:35:10.601Z,17.60
2022-08-26T03:36:10.527Z,17.67
2022-08-26T03:37:10.533Z,17.70
2022-08-26T03:38:10.535Z,17.76
2022-08-26T03:39:10.488Z,17.74
2022-08-26T03:40:10.632Z,17.85
2022-08-26T03:41:10.512Z,17.82
2022-08-26T03:42:10.718Z,17.89
2022-08-26T03:43:10.633Z,17.89
2022-08-26T03:44:10.445Z,17.85
2022-08-26T03:45:10.473Z,17.82
2022-08-26T03:46:10.452Z,17.87
2022-08-26T03:47:10.425Z,17.80
2022-08-26T03:48:10.438Z,17.78
2022-08-26T03:49:10.431Z,17.72
2022-08-26T03:50:10.413Z,17.64
2022-08-26T03:51:10.361Z,17.54
2022-08-26T03:52:10.390Z,17.42
2022-08-26T03:53:12.899Z,17.23
2022-08-26T03:54:10.390Z,17.14
2022-08-26T03:55:10.969Z,17.04
2022-08-26T03:56:10.321Z,17.08
2022-08-26T03:57:10.327Z,17.09
2022-08-26T03:58:10.316Z,17.01
2022-08-26T03:59:10.317Z,16.89
2022-08-26T04:00:10.382Z,16.87
2022-08-26T04:01:10.280Z,16.79
2022-08-26T04:02:11.651Z,16.84
2022-08-26T04:03:10.506Z,16.81
2022-08-26T04:04:10.281Z,16.96
2022-08-26T04:05:11.267Z,16.91
2022-08-26T04:06:10.209Z,16.94
2022-08-26T04:07:10.312Z,16.90
2022-08-26T04:08:10.243Z,16.81
2022-08-26T04:09:10.276Z,16.72
2022-08-26T04:10:10.224Z,16.81
2022-08-26T04:11:10.341Z,16.79
2022-08-26T04:12:10.154Z,16.61
2022-08-26T04:13:10.267Z,16.71
2022-08-26T04:14:11.150Z,16.57
2022-08-26T04:15:10.593Z,16.66
2022-08-26T04:16:10.374Z,16.66
2022-08-26T04:17:10.154Z,16.68
2022-08-26T04:18:10.271Z,16.68
2022-08-26T04:19:10.108Z,16.68
2022-08-26T04:20:10.122Z,16.71
2022-08-26T04:21:10.104Z,16.69
2022-08-26T04:22:10.072Z,16.71
2022-08-26T04:23:10.072Z,16.83
2022-08-26T04:24:12.022Z,16.91
2022-08-26T04:25:11.265Z,16.96
2022-08-26T04:26:10.031Z,16.97
2022-08-26T04:27:10.023Z,16.97
2022-08-26T04:28:10.044Z,16.94
2022-08-26T04:29:11.023Z,17.02
2022-08-26T04:30:10.677Z,16.99
2022-08-26T04:31:10.036Z,17.08
2022-08-26T04:32:09.933Z,17.19
2022-08-26T04:33:13.294Z,17.08
2022-08-26T04:34:11.077Z,17.12
2022-08-26T04:35:10.009Z,17.12
2022-08-26T04:36:09.901Z,17.11
2022-08-26T04:37:10.005Z,17.19
2022-08-26T04:38:09.897Z,17.26
2022-08-26T04:39:09.884Z,17.29
2022-08-26T04:40:09.941Z,17.29
2022-08-26T04:41:15.541Z,17.23
2022-08-26T04:42:09.900Z,17.16
2022-08-26T04:43:09.890Z,17.12
2022-08-26T04:44:09.885Z,17.05
2022-08-26T04:45:10.221Z,16.91
2022-08-26T04:46:10.193Z,16.89
2022-08-26T04:47:09.811Z,16.66
2022-08-26T04:48:10.140Z,16.61
2022-08-26T04:49:09.809Z,16.51
2022-08-26T04:50:10.973Z,16.71
2022-08-26T04:51:10.022Z,16.58
2022-08-26T04:52:09.749Z,16.43
2022-08-26T04:53:09.890Z,16.47
2022-08-26T04:54:09.725Z,16.43
2022-08-26T04:55:09.747Z,16.64
2022-08-26T04:56:09.725Z,16.69
2022-08-26T04:57:09.703Z,16.69
2022-08-26T04:58:10.436Z,16.71
2022-08-26T04:59:16.853Z,16.86
2022-08-26T05:00:10.733Z,16.79
2022-08-26T05:01:09.691Z,16.91
2022-08-26T05:02:09.738Z,16.89
2022-08-26T05:03:10.273Z,16.96
2022-08-26T05:04:09.739Z,16.97
2022-08-26T05:05:10.589Z,16.96
2022-08-26T05:06:09.635Z,17.04
2022-08-26T05:07:09.738Z,17.05
2022-08-26T05:08:09.612Z,17.02
2022-08-26T05:09:09.564Z,17.11
2022-08-26T05:10:09.562Z,17.04
2022-08-26T05:11:09.619Z,17.12
2022-08-26T05:12:09.660Z,17.11
2022-08-26T05:13:10.961Z,17.11
2022-08-26T05:14:09.568Z,17.11
2022-08-26T05:15:09.567Z,17.11
2022-08-26T05:16:09.801Z,17.38
2022-08-26T05:17:09.523Z,17.41
2022-08-26T05:18:10.619Z,17.38
2022-08-26T05:19:09.577Z,17.30
2022-08-26T05:20:09.476Z,17.23
2022-08-26T05:21:09.635Z,17.30
2022-08-26T05:22:09.495Z,17.22
2022-08-26T05:23:09.671Z,17.20
2022-08-26T05:24:09.450Z,17.19
2022-08-26T05:25:09.476Z,17.24
2022-08-26T05:26:09.468Z,17.33
2022-08-26T05:27:11.740Z,17.36
2022-08-26T05:28:09.405Z,17.48
2022-08-26T05:29:09.421Z,17.54
2022-08-26T05:30:09.476Z,17.54
2022-08-26T05:31:09.459Z,17.56
2022-08-26T05:32:09.386Z,17.49
2022-08-26T05:33:09.557Z,17.59
2022-08-26T05:34:09.358Z,17.63
2022-08-26T05:35:09.422Z,17.67
2022-08-26T05:36:09.381Z,17.74
2022-08-26T05:37:09.976Z,17.80
2022-08-26T05:38:12.425Z,17.78
2022-08-26T05:39:10.680Z,17.89
2022-08-26T05:40:09.307Z,17.80
2022-08-26T05:41:09.312Z,17.89
2022-08-26T05:42:09.427Z,18.00
2022-08-26T05:43:09.417Z,18.03
2022-08-26T05:44:09.353Z,18.20
2022-08-26T05:45:10.156Z,18.19
2022-08-26T05:46:09.397Z,18.22
2022-08-26T05:47:09.204Z,18.16
2022-08-26T05:48:09.188Z,18.26
2022-08-26T05:49:12.248Z,18.19
2022-08-26T05:50:09.212Z,18.22
2022-08-26T05:51:10.264Z,18.16
2022-08-26T05:52:09.145Z,18.16
2022-08-26T05:53:09.517Z,18.22
2022-08-26T05:54:10.469Z,18.28
2022-08-26T05:55:09.155Z,18.26
2022-08-26T05:56:09.163Z,18.23
2022-08-26T05:57:09.088Z,18.23
2022-08-26T05:58:09.084Z,18.19
2022-08-26T05:59:11.672Z,18.18
2022-08-26T06:00:09.226Z,18.18
2022-08-26T06:01:09.055Z,18.37
2022-08-26T06:02:09.033Z,18.38
2022-08-26T06:03:09.320Z,18.43
2022-08-26T06:04:09.026Z,18.41
2022-08-26T06:05:09.038Z,18.49
2022-08-26T06:06:09.573Z,18.52
2022-08-26T06:07:11.574Z,18.60
2022-08-26T06:08:08.951Z,18.60
2022-08-26T06:09:10.851Z,18.63
2022-08-26T06:10:31.035Z,18.80
2022-08-26T06:11:18.416Z,18.86
2022-08-26T06:12:08.928Z,18.88
2022-08-26T06:13:11.600Z,18.88
2022-08-26T06:14:09.524Z,18.90
2022-08-26T06:15:08.983Z,19.02
2022-08-26T06:16:08.985Z,19.07
2022-08-26T06:17:09.540Z,19.09
2022-08-26T06:18:08.922Z,19.19
2022-08-26T06:19:10.192Z,19.19
2022-08-26T06:20:08.948Z,19.18
2022-08-26T06:21:08.955Z,19.16
2022-08-26T06:22:08.841Z,19.16
2022-08-26T06:23:09.115Z,19.30
2022-08-26T06:24:08.829Z,19.21
2022-08-26T06:25:08.836Z,19.24
2022-08-26T06:26:09.319Z,19.24
2022-08-26T06:27:08.738Z,19.27
2022-08-26T06:28:08.782Z,19.34
2022-08-26T06:29:08.833Z,19.52
2022-08-26T06:30:08.717Z,19.55
2022-08-26T06:31:09.218Z,19.69
2022-08-26T06:32:08.902Z,19.69
2022-08-26T06:33:09.743Z,19.86
2022-08-26T06:34:10.936Z,19.96
2022-08-26T06:35:12.143Z,20.00
2022-08-26T06:36:08.728Z,19.91
2022-08-26T06:37:08.726Z,20.19
2022-08-26T06:38:08.670Z,20.19
2022-08-26T06:39:08.672Z,20.25
2022-08-26T06:40:08.772Z,20.26
2022-08-26T06:41:08.655Z,20.21
2022-08-26T06:42:41.286Z,20.34
2022-08-26T06:43:08.859Z,20.52
2022-08-26T06:44:08.714Z,20.72
2022-08-26T06:45:08.615Z,20.84
2022-08-26T06:46:08.771Z,20.93
2022-08-26T06:47:08.585Z,21.03
2022-08-26T06:48:08.580Z,20.99
2022-08-26T06:49:08.662Z,21.18
2022-08-26T06:50:08.499Z,21.22
2022-08-26T06:51:09.519Z,21.24
2022-08-26T06:52:08.512Z,21.46
2022-08-26T06:53:08.669Z,21.46
2022-08-26T06:54:08.607Z,21.48
2022-08-26T06:55:08.510Z,21.57
2022-08-26T06:56:08.480Z,21.54
2022-08-26T06:57:08.510Z,21.46
2022-08-26T06:58:08.441Z,21.45
2022-08-26T06:59:08.438Z,21.36
2022-08-26T07:00:08.436Z,21.37
2022-08-26T07:01:11.479Z,21.42
2022-08-26T07:02:09.546Z,21.37
2022-08-26T07:03:08.694Z,21.52
2022-08-26T07:04:10.641Z,21.67
2022-08-26T07:05:08.434Z,21.85
2022-08-26T07:06:08.384Z,21.99
2022-08-26T07:07:09.736Z,22.02
2022-08-26T07:08:08.440Z,22.26
2022-08-26T07:09:09.769Z,22.29
2022-08-26T07:10:08.409Z,22.45
2022-08-26T07:11:08.342Z,22.43
2022-08-26T07:12:08.308Z,22.38
2022-08-26T07:13:08.391Z,22.48
2022-08-26T07:14:08.303Z,22.57
2022-08-26T07:15:09.119Z,22.62
2022-08-26T07:16:08.345Z,22.55
2022-08-26T07:17:12.160Z,22.54
2022-08-26T07:18:10.367Z,22.47
2022-08-26T07:19:10.796Z,22.50
2022-08-26T07:20:08.248Z,22.62
2022-08-26T07:21:08.243Z,22.73
2022-08-26T07:22:09.185Z,22.81
2022-08-26T07:23:10.004Z,22.85
2022-08-26T07:24:08.497Z,23.00
2022-08-26T07:25:08.164Z,23.00
2022-08-26T07:26:08.472Z,23.06
2022-08-26T07:27:08.714Z,23.05
2022-08-26T07:28:08.481Z,23.02
2022-08-26T07:29:08.159Z,23.09
2022-08-26T07:30:19.107Z,23.06
2022-08-26T07:31:08.211Z,23.10
2022-08-26T07:32:08.139Z,23.06
2022-08-26T07:33:08.402Z,23.23
2022-08-26T07:34:08.135Z,23.23
2022-08-26T07:35:08.090Z,23.28
2022-08-26T07:36:08.092Z,23.37
2022-08-26T07:37:08.828Z,23.32
2022-08-26T07:38:09.003Z,23.40
2022-08-26T07:39:08.052Z,23.51
2022-08-26T07:40:08.108Z,23.56
2022-08-26T07:41:08.043Z,23.74
2022-08-26T07:42:08.640Z,23.63
2022-08-26T07:43:08.149Z,23.73
2022-08-26T07:44:08.506Z,23.65
2022-08-26T07:45:08.234Z,23.68
2022-08-26T07:46:07.985Z,23.69
2022-08-26T07:47:25.508Z,23.76
2022-08-26T07:48:09.951Z,23.80
2022-08-26T07:49:08.015Z,23.86
2022-08-26T07:50:07.944Z,23.91
2022-08-26T07:51:07.941Z,23.86
2022-08-26T07:52:08.241Z,23.84
2022-08-26T07:53:08.009Z,23.95
2022-08-26T07:54:08.028Z,23.99
2022-08-26T07:55:07.908Z,23.98
2022-08-26T07:56:07.911Z,24.06
2022-08-26T07:57:09.416Z,24.02
2022-08-26T07:58:07.879Z,24.14
2022-08-26T07:59:13.639Z,24.11
2022-08-26T08:00:08.837Z,24.10
2022-08-26T08:01:08.002Z,24.10
2022-08-26T08:02:07.836Z,24.08
2022-08-26T08:03:08.019Z,24.01
2022-08-26T08:04:08.134Z,24.06
2022-08-26T08:05:07.820Z,24.10
2022-08-26T08:06:07.813Z,24.14
2022-08-26T08:07:11.542Z,24.17
2022-08-26T08:08:26.648Z,24.03
2022-08-26T08:09:08.812Z,24.05
2022-08-26T08:10:11.516Z,24.24
2022-08-26T08:11:09.973Z,24.35
2022-08-26T08:12:07.711Z,24.35
2022-08-26T08:13:07.886Z,24.42
2022-08-26T08:14:08.430Z,24.40
2022-08-26T08:15:07.751Z,24.51
2022-08-26T08:16:07.700Z,24.57
2022-08-26T08:17:07.894Z,24.55
2022-08-26T08:18:15.328Z,24.68
2022-08-26T08:19:08.661Z,24.74
2022-08-26T08:20:07.639Z,24.78
2022-08-26T08:21:24.154Z,24.88
2022-08-26T08:22:17.480Z,24.78
2022-08-26T08:23:08.594Z,24.89
2022-08-26T08:24:07.616Z,24.92
2022-08-26T08:25:08.178Z,24.98
2022-08-26T08:26:08.330Z,25.04
2022-08-26T08:27:07.631Z,25.03
2022-08-26T08:28:07.759Z,25.16
2022-08-26T08:29:08.208Z,25.23
2022-08-26T08:30:07.544Z,25.28
2022-08-26T08:31:07.611Z,25.47
2022-08-26T08:32:11.438Z,25.55
2022-08-26T08:33:07.500Z,25.62
2022-08-26T08:34:07.481Z,25.62
2022-08-26T08:35:11.082Z,25.70
2022-08-26T08:36:09.287Z,25.84
2022-08-26T08:37:10.650Z,25.93
2022-08-26T08:39:17.646Z,26.22
2022-08-26T08:40:17.691Z,26.31
2022-08-26T08:41:17.621Z,26.37
2022-08-26T08:42:18.754Z,26.45
2022-08-26T08:43:18.779Z,26.52
2022-08-26T08:44:18.769Z,26.52
2022-08-26T08:45:18.731Z,26.62
2022-08-26T08:46:18.773Z,26.80
2022-08-26T08:47:18.793Z,26.85
2022-08-26T08:48:18.795Z,26.84
2022-08-26T08:49:18.822Z,27.02
2022-08-26T08:50:18.978Z,27.11
2022-08-26T08:51:18.734Z,27.17
2022-08-26T08:52:18.680Z,27.37
2022-08-26T08:53:18.653Z,27.44
2022-08-26T08:54:19.405Z,27.30
2022-08-26T08:55:18.832Z,27.47
2022-08-26T08:57:44.459Z,27.55
2022-08-26T08:57:46.515Z,27.35
2022-08-26T08:58:46.566Z,27.29
2022-08-26T08:59:48.550Z,27.37
2022-08-26T09:00:46.839Z,27.55
2022-08-26T09:01:46.600Z,27.67
2022-08-26T09:03:02.642Z,27.74
2022-08-26T09:03:47.413Z,27.68
2022-08-26T09:04:46.352Z,27.51
2022-08-26T09:05:48.881Z,27.64
2022-08-26T09:08:19.928Z,27.71
2022-08-26T09:08:21.619Z,27.87
2022-08-26T09:09:22.374Z,27.93
2022-08-26T09:10:21.587Z,28.05
2022-08-26T09:11:35.850Z,28.11
2022-08-26T09:12:21.591Z,27.96
2022-08-26T09:13:26.374Z,28.00
2022-08-26T09:14:21.514Z,28.17
2022-08-26T09:15:21.562Z,28.30
2022-08-26T09:16:21.601Z,28.41
2022-08-26T09:17:21.536Z,28.39
2022-08-26T09:18:21.466Z,28.63
2022-08-26T09:19:21.549Z,28.81
2022-08-26T09:20:21.445Z,28.96
2022-08-26T09:21:21.439Z,28.94
2022-08-26T09:23:22.479Z,29.12
2022-08-26T09:24:28.844Z,29.20
2022-08-26T09:25:23.091Z,29.31
2022-08-26T09:26:23.543Z,29.31
2022-08-26T09:27:22.450Z,29.27
2022-08-26T09:28:21.418Z,29.61
2022-08-26T09:29:22.385Z,29.51
2022-08-26T09:30:21.622Z,29.69
2022-08-26T09:31:21.404Z,29.63
2022-08-26T09:32:21.454Z,29.72
2022-08-26T09:33:21.365Z,29.65
2022-08-26T09:34:21.387Z,29.75
2022-08-26T09:35:21.363Z,29.78
2022-08-26T09:36:22.136Z,29.93
2022-08-26T09:37:21.311Z,29.76
2022-08-26T09:38:21.342Z,29.76
2022-08-26T09:39:21.316Z,29.93
2022-08-26T09:40:21.701Z,30.03
2022-08-26T09:41:27.670Z,30.03
2022-08-26T09:42:21.248Z,30.15
2022-08-26T09:43:23.027Z,30.31
2022-08-26T09:44:24.936Z,30.30
2022-08-26T09:45:22.446Z,30.37
2022-08-26T09:46:21.507Z,30.39
2022-08-26T09:47:21.234Z,30.48
2022-08-26T09:48:21.162Z,30.37
2022-08-26T09:49:21.680Z,30.48
2022-08-26T09:50:21.206Z,30.62
2022-08-26T09:51:21.150Z,30.59
2022-08-26T09:52:21.222Z,30.73
2022-08-26T09:53:25.190Z,30.88
2022-08-26T09:54:22.494Z,30.94
2022-08-26T09:55:22.334Z,30.91
2022-08-26T09:56:21.118Z,30.75
2022-08-26T09:57:21.187Z,30.48
2022-08-26T09:58:21.110Z,30.16
2022-08-26T09:59:21.131Z,30.09
2022-08-26T10:00:21.088Z,30.25
2022-08-26T10:01:21.282Z,30.32
2022-08-26T10:02:23.819Z,30.37
2022-08-26T10:03:21.115Z,30.50
2022-08-26T10:04:21.088Z,30.47
2022-08-26T10:05:21.045Z,30.66
2022-08-26T10:06:50.746Z,30.81
2022-08-26T10:07:22.260Z,30.85
2022-08-26T10:08:21.467Z,30.97
2022-08-26T10:09:22.061Z,31.15
2022-08-26T10:11:58.061Z,31.18
2022-08-26T10:13:51.229Z,31.21
2022-08-26T10:14:21.648Z,31.21
2022-08-26T10:15:00.971Z,31.28
2022-08-26T10:15:59.545Z,31.25
2022-08-26T10:16:59.864Z,31.12
2022-08-26T10:18:00.248Z,31.03
2022-08-26T10:19:00.312Z,31.02
2022-08-26T10:20:02.966Z,30.96
2022-08-26T10:20:59.134Z,31.00
2022-08-26T10:22:00.172Z,31.17
2022-08-26T10:22:59.116Z,31.21
2022-08-26T10:23:59.116Z,31.37
2022-08-26T10:24:59.102Z,31.46
2022-08-26T10:26:00.058Z,31.64
2022-08-26T10:27:00.353Z,31.56
2022-08-26T10:27:59.105Z,31.69
2022-08-26T10:28:59.075Z,31.46
2022-08-26T10:29:59.089Z,31.46
2022-08-26T10:30:59.092Z,31.40
2022-08-26T10:33:57.989Z,31.42
2022-08-26T10:34:00.816Z,31.37
2022-08-26T10:34:59.639Z,31.31
2022-08-26T10:35:59.649Z,30.92
2022-08-26T10:38:21.390Z,30.81
2022-08-26T10:39:41.572Z,31.21
2022-08-26T10:40:42.263Z,31.18
2022-08-26T10:41:42.306Z,31.27
2022-08-26T10:42:44.166Z,31.36
2022-08-26T10:43:42.877Z,31.52
2022-08-26T10:44:46.331Z,31.66
2022-08-26T10:45:44.925Z,31.74
2022-08-26T10:46:42.580Z,31.81
2022-08-26T10:47:43.354Z,32.11
2022-08-26T10:48:42.539Z,32.19
2022-08-26T10:49:43.389Z,32.34
2022-08-26T10:50:47.462Z,32.38
2022-08-26T10:51:42.678Z,32.36
2022-08-26T10:52:43.268Z,32.33
2022-08-26T10:53:51.483Z,32.48
2022-08-26T10:54:43.589Z,32.43
2022-08-26T10:55:42.492Z,32.48
2022-08-26T10:56:43.458Z,32.45
2022-08-26T10:57:42.448Z,32.51
2022-08-26T10:58:42.578Z,32.73
2022-08-26T10:59:42.419Z,32.82
2022-08-26T11:00:43.960Z,33.05
2022-08-26T11:01:50.095Z,33.14
2022-08-26T11:02:47.159Z,33.09
2022-08-26T11:03:43.446Z,33.04
2022-08-26T11:04:46.976Z,33.07
2022-08-26T11:06:04.286Z,33.19
2022-08-26T11:06:42.358Z,33.27
2022-08-26T11:07:42.464Z,33.17
2022-08-26T11:08:42.978Z,32.63
2022-08-26T11:09:43.250Z,32.45
2022-08-26T11:10:43.729Z,32.55
2022-08-26T11:11:42.798Z,32.80
2022-08-26T11:12:43.768Z,33.08
2022-08-26T11:13:46.973Z,33.12
2022-08-26T11:14:53.214Z,33.23
2022-08-26T11:15:42.325Z,33.27
2022-08-26T11:16:43.425Z,33.19
2022-08-26T11:17:47.170Z,33.01
2022-08-26T11:18:42.362Z,32.96
2022-08-26T11:19:59.549Z,32.86
2022-08-26T11:20:44.335Z,32.77
2022-08-26T11:21:42.543Z,32.70
2022-08-26T11:22:47.702Z,32.74
2022-08-26T11:23:45.348Z,32.74
2022-08-26T11:24:43.277Z,32.82
2022-08-26T11:25:43.260Z,32.74
2022-08-26T11:26:56.004Z,32.68
2022-08-26T11:27:44.037Z,32.75
2022-08-26T11:28:44.084Z,32.60
2022-08-26T11:29:42.237Z,32.45
2022-08-26T11:30:42.485Z,32.31
2022-08-26T11:31:42.229Z,32.21
2022-08-26T11:32:42.193Z,32.38
2022-08-26T11:33:42.180Z,32.38
2022-08-26T11:34:42.493Z,32.48
2022-08-26T11:35:47.635Z,32.58
2022-08-26T11:36:42.789Z,32.52
2022-08-26T11:38:50.703Z,32.53
2022-08-26T11:39:54.705Z,32.56
2022-08-26T11:40:53.616Z,32.67
2022-08-26T11:41:53.030Z,32.58
2022-08-26T11:42:51.788Z,32.52
2022-08-26T11:43:52.424Z,32.51
2022-08-26T11:44:51.718Z,32.49
2022-08-26T11:45:51.738Z,32.38
2022-08-26T11:46:51.662Z,32.41
2022-08-26T11:47:52.074Z,32.34
2022-08-26T11:48:51.746Z,32.46
2022-08-26T11:49:51.655Z,32.29
2022-08-26T11:50:51.655Z,32.18
2022-08-26T11:51:52.590Z,32.27
2022-08-26T11:52:51.705Z,32.11
2022-08-26T11:53:51.622Z,32.15
2022-08-26T11:54:51.697Z,32.26
2022-08-26T11:55:52.389Z,32.22
2022-08-26T11:56:51.586Z,32.07
2022-08-26T11:57:51.584Z,32.15
2022-08-26T11:58:51.596Z,32.15
2022-08-26T11:59:51.559Z,32.11
2022-08-26T12:00:51.529Z,32.09
2022-08-26T12:01:51.578Z,32.23
2022-08-26T12:02:52.499Z,32.31
2022-08-26T12:03:52.239Z,32.33
2022-08-26T12:04:51.482Z,32.40
2022-08-26T12:05:51.485Z,32.43
2022-08-26T12:06:51.494Z,32.46
2022-08-26T12:07:51.476Z,32.52
2022-08-26T12:08:51.607Z,32.58
2022-08-26T12:09:51.454Z,32.64
2022-08-26T12:10:51.462Z,32.64
2022-08-26T12:11:51.466Z,32.65
2022-08-26T12:12:51.415Z,32.68
2022-08-26T12:13:51.376Z,32.67
2022-08-26T12:14:51.469Z,32.58
2022-08-26T12:15:51.396Z,32.52
2022-08-26T12:16:51.434Z,32.53
2022-08-26T12:17:54.329Z,32.56
2022-08-26T12:18:52.378Z,32.56
2022-08-26T12:19:51.395Z,32.65
2022-08-26T12:20:51.381Z,32.55
2022-08-26T12:21:51.422Z,32.51
2022-08-26T12:22:51.367Z,32.49
2022-08-26T12:23:52.269Z,32.33
2022-08-26T12:24:51.306Z,32.34
2022-08-26T12:25:51.311Z,32.26
2022-08-26T12:26:51.357Z,32.08
2022-08-26T12:27:53.703Z,32.07
2022-08-26T12:28:52.280Z,31.96
2022-08-26T12:29:51.276Z,31.89
2022-08-26T12:30:51.401Z,31.80
2022-08-26T12:31:51.278Z,31.81
2022-08-26T12:32:57.810Z,31.87
2022-08-26T12:33:52.287Z,31.77
2022-08-26T12:34:51.219Z,31.84
2022-08-26T12:35:54.747Z,31.76
2022-08-26T12:36:53.376Z,31.73
2022-08-26T12:37:51.813Z,31.61
2022-08-26T12:38:51.216Z,31.51
2022-08-26T12:39:51.300Z,31.33
2022-08-26T12:40:51.224Z,31.27
2022-08-26T12:41:51.170Z,31.40
2022-08-26T12:42:51.273Z,31.44
2022-08-26T12:43:52.201Z,31.51
2022-08-26T12:44:53.471Z,31.46
2022-08-26T12:45:51.219Z,31.49
2022-08-26T12:46:52.110Z,31.66
2022-08-26T12:47:51.186Z,31.77
2022-08-26T12:48:51.341Z,31.66
2022-08-26T12:49:51.157Z,31.81
2022-08-26T12:50:51.139Z,31.94
2022-08-26T12:51:51.123Z,32.09
2022-08-26T12:52:51.087Z,32.18
2022-08-26T12:53:51.119Z,32.27
2022-08-26T12:54:56.086Z,32.45
2022-08-26T12:55:53.094Z,32.55
2022-08-26T12:56:51.964Z,32.63
2022-08-26T12:57:51.084Z,32.53
2022-08-26T12:58:51.158Z,32.67
2022-08-26T12:59:51.002Z,32.87
2022-08-26T13:00:51.915Z,32.92
2022-08-26T13:01:51.108Z,33.02
2022-08-26T13:02:51.001Z,33.11
2022-08-26T13:03:50.980Z,33.07
2022-08-26T13:04:50.961Z,32.96
2022-08-26T13:05:50.977Z,32.95
2022-08-26T13:06:50.945Z,33.07
2022-08-26T13:07:51.805Z,33.17
2022-08-26T13:08:50.924Z,33.28
2022-08-26T13:09:51.671Z,33.27
2022-08-26T13:10:50.932Z,33.42
2022-08-26T13:11:51.817Z,33.42
2022-08-26T13:12:50.899Z,33.46
2022-08-26T13:13:51.129Z,33.49